createdAt,value
2022-10-11T00:01:53.626Z,8.55
2022-10-11T00:04:20.391Z,10.45
2022-10-11T00:06:47.462Z,8.02
2022-10-11T00:09:15.991Z,9.23
2022-10-11T00:11:43.204Z,14.05
2022-10-11T00:14:10.144Z,8.98
2022-10-11T00:16:40.851Z,6.88
2022-10-11T00:19:07.726Z,4.38
2022-10-11T00:21:34.589Z,11.15
2022-10-11T00:24:01.323Z,10.90
2022-10-11T00:26:28.248Z,4.32
2022-10-11T00:28:55.175Z,3.63
2022-10-11T00:31:22.344Z,6.80
2022-10-11T00:33:49.213Z,4.40
2022-10-11T00:36:17.438Z,8.23
2022-10-11T00:38:45.069Z,10.23
2022-10-11T00:41:12.733Z,9.70
2022-10-11T00:43:39.600Z,8.27
2022-10-11T00:46:23.491Z,4.65
2022-10-11T00:48:59.551Z,6.60
2022-10-11T00:51:49.800Z,7.30
2022-10-11T00:54:21.009Z,4.80
2022-10-11T00:56:53.647Z,8.37
2022-10-11T00:59:25.313Z,7.00
2022-10-11T01:01:52.505Z,13.68
2022-10-11T01:04:19.276Z,11.18
2022-10-11T01:06:47.272Z,11.48
2022-10-11T01:09:14.430Z,7.47
2022-10-11T01:11:43.465Z,5.72
2022-10-11T01:14:44.325Z,8.77
2022-10-11T01:17:28.800Z,4.55
2022-10-11T01:20:14.476Z,9.82
2022-10-11T01:23:30.533Z,9.80
2022-10-11T01:26:31.547Z,5.47
2022-10-11T01:28:58.299Z,9.98
2022-10-11T01:31:45.427Z,5.60
2022-10-11T01:34:22.167Z,4.93
2022-10-11T01:36:51.869Z,6.80
2022-10-11T01:39:46.931Z,6.85
2022-10-11T01:42:15.272Z,8.25
2022-10-11T01:44:45.793Z,5.45
2022-10-11T01:47:12.487Z,8.80
2022-10-11T01:49:39.446Z,9.38
2022-10-11T01:52:07.813Z,7.60
2022-10-11T01:55:08.556Z,10.70
2022-10-11T01:57:48.299Z,8.10
2022-10-11T02:00:24.427Z,7.45
2022-10-11T02:03:06.133Z,6.65
2022-10-11T02:05:44.743Z,11.80
2022-10-11T02:08:25.363Z,8.32
2022-10-11T02:11:06.239Z,7.05
2022-10-11T02:13:36.419Z,9.32
2022-10-11T02:16:09.433Z,9.73
2022-10-11T02:18:41.787Z,10.60
2022-10-11T02:21:12.259Z,7.40
2022-10-11T02:23:49.808Z,10.45
2022-10-11T02:26:18.041Z,7.05
2022-10-11T02:28:46.728Z,5.10
2022-10-11T02:31:15.121Z,7.93
2022-10-11T02:34:04.827Z,8.20
2022-10-11T02:36:47.208Z,6.43
2022-10-11T02:39:20.504Z,8.35
2022-10-11T02:41:51.037Z,12.23
2022-10-11T02:44:24.077Z,7.35
2022-10-11T02:46:51.260Z,3.65
2022-10-11T02:49:19.252Z,5.65
2022-10-11T02:51:46.204Z,8.15
2022-10-11T02:54:12.922Z,7.85
2022-10-11T02:56:39.584Z,5.45
2022-10-11T02:59:06.246Z,7.57
2022-10-11T03:01:32.989Z,5.43
2022-10-11T03:03:59.718Z,6.38
2022-10-11T03:06:26.386Z,6.30
2022-10-11T03:08:53.081Z,5.53
2022-10-11T03:11:19.781Z,8.82
2022-10-11T03:13:46.461Z,5.88
2022-10-11T03:16:13.736Z,8.65
2022-10-11T03:18:40.900Z,9.93
2022-10-11T03:21:07.604Z,5.65
2022-10-11T03:23:34.318Z,6.78
2022-10-11T03:26:01.038Z,4.38
2022-10-11T03:28:28.092Z,10.48
2022-10-11T03:30:54.887Z,8.63
2022-10-11T03:33:21.607Z,4.78
2022-10-11T03:35:48.844Z,10.35
2022-10-11T03:38:19.021Z,4.32
2022-10-11T03:40:45.792Z,10.82
2022-10-11T03:43:12.604Z,6.65
2022-10-11T03:45:42.214Z,11.77
2022-10-11T03:48:09.920Z,18.33
2022-10-11T03:50:37.650Z,23.58
2022-10-11T03:53:06.028Z,29.15
2022-10-11T03:55:32.875Z,22.48
2022-10-11T03:57:59.720Z,25.33
2022-10-11T04:00:26.957Z,28.13
2022-10-11T04:02:53.679Z,26.30
2022-10-11T04:05:21.102Z,26.00
2022-10-11T04:07:47.764Z,18.02
2022-10-11T04:10:14.623Z,18.38
2022-10-11T04:12:41.314Z,24.52
2022-10-11T04:15:08.250Z,24.20
2022-10-11T04:17:35.143Z,15.70
2022-10-11T04:20:01.838Z,20.70
2022-10-11T04:22:28.610Z,24.35
2022-10-11T04:24:55.363Z,14.75
2022-10-11T04:27:22.085Z,14.73
2022-10-11T04:29:48.919Z,16.67
2022-10-11T04:32:15.618Z,14.50
2022-10-11T04:34:42.375Z,13.00
2022-10-11T04:37:09.049Z,14.60
2022-10-11T04:39:35.905Z,17.73
2022-10-11T04:42:02.728Z,19.38
2022-10-11T04:44:29.528Z,27.95
2022-10-11T04:46:56.267Z,18.80
2022-10-11T04:49:23.378Z,24.30
2022-10-11T04:51:50.528Z,16.10
2022-10-11T04:54:17.550Z,9.77
2022-10-11T04:56:44.249Z,9.73
2022-10-11T04:59:11.118Z,15.77
2022-10-11T05:01:37.815Z,13.15
2022-10-11T05:04:04.664Z,10.25
2022-10-11T05:06:31.536Z,9.88
2022-10-11T05:08:58.187Z,15.57
2022-10-11T05:11:24.868Z,9.85
2022-10-11T05:13:51.605Z,10.68
2022-10-11T05:16:18.630Z,12.07
2022-10-11T05:18:45.415Z,10.30
2022-10-11T05:21:17.836Z,22.90
2022-10-11T05:23:44.764Z,13.57
2022-10-11T05:26:11.631Z,13.43
2022-10-11T05:28:38.531Z,10.85
2022-10-11T05:31:06.298Z,12.35
2022-10-11T05:33:33.065Z,13.95
2022-10-11T05:36:00.531Z,12.85
2022-10-11T05:38:27.819Z,11.90
2022-10-11T05:40:54.739Z,10.10
2022-10-11T05:43:21.483Z,11.38
2022-10-11T05:45:49.156Z,10.70
2022-10-11T05:48:15.852Z,14.10
2022-10-11T05:50:42.535Z,11.63
2022-10-11T05:53:09.674Z,13.30
2022-10-11T05:55:38.051Z,12.73
2022-10-11T05:58:05.437Z,13.85
2022-10-11T06:00:32.561Z,12.35
2022-10-11T06:02:59.325Z,14.52
2022-10-11T06:05:26.135Z,10.98
2022-10-11T06:07:52.910Z,9.45
2022-10-11T06:10:19.703Z,10.82
2022-10-11T06:12:46.426Z,9.02
2022-10-11T06:15:13.291Z,8.93
2022-10-11T06:17:39.979Z,9.60
2022-10-11T06:20:07.317Z,10.15
2022-10-11T06:22:34.327Z,12.00
2022-10-11T06:25:01.071Z,14.18
2022-10-11T06:27:28.111Z,8.65
2022-10-11T06:29:59.027Z,10.00
2022-10-11T06:32:26.150Z,11.20
2022-10-11T06:34:53.279Z,12.00
2022-10-11T06:37:20.139Z,10.27
2022-10-11T06:39:46.819Z,10.55
2022-10-11T06:42:13.534Z,19.02
2022-10-11T06:44:40.447Z,8.30
2022-10-11T06:47:07.769Z,9.30
2022-10-11T06:49:35.440Z,15.30
2022-10-11T06:52:02.265Z,18.38
2022-10-11T06:54:29.015Z,17.77
2022-10-11T06:56:55.800Z,11.80
2022-10-11T06:59:22.470Z,20.95
2022-10-11T07:01:49.218Z,19.75
2022-10-11T07:04:15.893Z,15.85
2022-10-11T07:06:43.127Z,10.48
2022-10-11T07:09:10.291Z,15.20
2022-10-11T07:11:37.018Z,27.95
2022-10-11T07:14:07.642Z,10.35
2022-10-11T07:16:37.988Z,29.45
2022-10-11T07:19:06.664Z,12.93
2022-10-11T07:21:35.039Z,14.07
2022-10-11T07:24:02.037Z,10.52
2022-10-11T07:26:33.732Z,10.75
2022-10-11T07:29:04.940Z,63.58
2022-10-11T07:31:32.079Z,14.57
2022-10-11T07:33:58.859Z,15.35
2022-10-11T07:36:25.940Z,14.57
2022-10-11T07:38:52.940Z,22.42
2022-10-11T07:41:20.469Z,9.57
2022-10-11T07:43:49.450Z,13.00
2022-10-11T07:46:17.274Z,29.30
2022-10-11T07:48:44.069Z,22.05
2022-10-11T07:51:15.888Z,19.80
2022-10-11T07:53:48.606Z,16.08
2022-10-11T07:56:18.353Z,9.73
2022-10-11T07:58:49.141Z,15.48
2022-10-11T08:01:15.932Z,14.93
2022-10-11T08:03:42.755Z,18.98
2022-10-11T08:06:11.360Z,11.45
2022-10-11T08:08:38.183Z,9.77
2022-10-11T08:11:05.368Z,25.95
2022-10-11T08:13:32.580Z,13.93
2022-10-11T08:15:59.443Z,15.20
2022-10-11T08:18:26.553Z,12.00
2022-10-11T08:20:53.284Z,15.57
2022-10-11T08:23:20.485Z,23.80
2022-10-11T08:25:48.159Z,11.60
2022-10-11T08:28:17.400Z,9.70
2022-10-11T08:30:52.735Z,11.68
2022-10-11T08:33:22.248Z,10.82
2022-10-11T08:35:50.181Z,21.63
2022-10-11T08:38:17.973Z,11.80
2022-10-11T08:40:56.961Z,11.07
2022-10-11T08:43:31.144Z,12.18
2022-10-11T08:46:00.984Z,12.38
2022-10-11T08:48:35.877Z,16.05
2022-10-11T08:51:12.392Z,14.70
2022-10-11T08:53:59.829Z,13.55
2022-10-11T08:56:30.519Z,17.10
2022-10-11T08:59:04.586Z,13.63
2022-10-11T09:01:32.261Z,13.40
2022-10-11T09:04:00.107Z,13.90
2022-10-11T09:07:03.955Z,14.43
2022-10-11T09:09:43.679Z,13.68
2022-10-11T09:12:13.451Z,14.50
2022-10-11T09:15:08.880Z,13.38
2022-10-11T09:17:53.740Z,19.60
2022-10-11T09:21:04.653Z,13.20
2022-10-11T09:23:51.156Z,12.18
2022-10-11T09:26:29.753Z,10.73
2022-10-11T09:29:21.732Z,11.35
2022-10-11T09:31:54.968Z,10.85
2022-10-11T09:34:25.844Z,11.82
2022-10-11T09:37:18.024Z,12.50
2022-10-11T09:42:17.798Z,9.57
2022-10-11T09:44:50.129Z,12.60
2022-10-11T09:47:22.415Z,12.90
2022-10-11T09:50:06.515Z,10.70
2022-10-11T09:52:34.237Z,9.43
2022-10-11T09:55:02.502Z,16.90
2022-10-11T09:57:30.404Z,11.25
2022-10-11T09:59:59.202Z,14.27
2022-10-11T10:02:27.504Z,10.27
2022-10-11T10:05:09.557Z,10.93
2022-10-11T10:10:40.313Z,10.85
2022-10-11T10:13:18.703Z,7.97
2022-10-11T10:15:48.295Z,10.15
2022-10-11T10:18:37.639Z,11.52
2022-10-11T10:21:10.408Z,13.23
2022-10-11T10:23:37.699Z,10.80
2022-10-11T10:26:11.780Z,9.90
2022-10-11T10:28:39.271Z,9.73
2022-10-11T10:31:25.174Z,9.20
2022-10-11T10:33:54.303Z,13.95
2022-10-11T10:36:28.593Z,9.90
2022-10-11T10:39:04.347Z,12.95
2022-10-11T10:41:31.192Z,10.52
2022-10-11T10:44:00.315Z,12.90
2022-10-11T10:46:45.987Z,12.40
2022-10-11T10:49:52.357Z,11.20
2022-10-11T10:52:35.929Z,17.02
2022-10-11T10:55:23.839Z,13.10
2022-10-11T10:57:56.981Z,10.52
2022-10-11T11:00:24.826Z,10.02
2022-10-11T11:03:01.792Z,7.47
2022-10-11T11:05:50.405Z,12.70
2022-10-11T11:08:41.770Z,14.57
2022-10-11T11:11:36.458Z,9.53
2022-10-11T11:14:18.528Z,8.50
2022-10-11T11:19:31.019Z,8.10
2022-10-11T11:22:18.813Z,6.63
2022-10-11T11:25:08.317Z,5.82
2022-10-11T11:27:38.058Z,6.93
2022-10-11T11:30:54.712Z,14.02
2022-10-11T11:33:50.094Z,8.65
2022-10-11T11:36:27.640Z,8.75
2022-10-11T11:39:01.587Z,11.15
2022-10-11T11:41:42.838Z,5.68
2022-10-11T11:44:31.960Z,6.32
2022-10-11T11:46:58.681Z,5.20
2022-10-11T11:49:39.244Z,13.27
2022-10-11T11:52:11.709Z,11.50
2022-10-11T11:55:07.302Z,13.48
2022-10-11T11:57:56.355Z,10.50
2022-10-11T12:00:34.737Z,10.18
2022-10-11T12:03:13.421Z,6.38
2022-10-11T12:06:12.235Z,13.10
2022-10-11T12:08:40.727Z,10.52
2022-10-11T12:11:23.899Z,11.52
2022-10-11T12:13:52.474Z,9.48
2022-10-11T12:16:20.280Z,7.85
2022-10-11T12:18:57.788Z,10.65
2022-10-11T12:21:39.243Z,9.75
2022-10-11T12:24:13.510Z,5.78
2022-10-11T12:26:45.616Z,15.32
2022-10-11T12:29:25.924Z,26.58
2022-10-11T12:32:01.278Z,15.50
2022-10-11T12:34:41.953Z,10.43
2022-10-11T12:37:17.723Z,5.57
2022-10-11T12:39:52.011Z,8.35
2022-10-11T12:42:36.406Z,6.93
2022-10-11T12:45:14.634Z,10.05
2022-10-11T12:47:55.605Z,7.95
2022-10-11T12:50:31.591Z,6.97
2022-10-11T12:53:18.480Z,7.55
2022-10-11T12:56:01.762Z,11.93
2022-10-11T12:58:38.646Z,6.25
2022-10-11T13:01:16.644Z,6.30
2022-10-11T13:04:10.965Z,9.65
2022-10-11T13:06:53.733Z,9.25
2022-10-11T13:09:32.242Z,9.95
2022-10-11T13:12:06.751Z,4.60
2022-10-11T13:14:42.355Z,5.82
2022-10-11T13:17:25.762Z,8.10
2022-10-11T13:20:00.970Z,7.82
2022-10-11T13:22:28.328Z,5.95
2022-10-11T13:25:00.227Z,10.80
2022-10-11T13:29:59.236Z,6.97
2022-10-11T13:32:29.641Z,7.25
2022-10-11T13:35:04.739Z,12.25
2022-10-11T13:37:39.132Z,10.05
2022-10-11T13:40:06.843Z,8.52
2022-10-11T13:42:33.798Z,9.48
2022-10-11T13:45:01.165Z,8.43
2022-10-11T13:47:29.994Z,5.28
2022-10-11T13:50:15.522Z,10.70
2022-10-11T13:53:11.390Z,12.98
2022-10-11T13:55:55.992Z,4.38
2022-10-11T13:58:49.174Z,10.60
2022-10-11T14:01:28.550Z,7.25
2022-10-11T14:03:57.623Z,10.10
2022-10-11T14:06:38.136Z,7.88
2022-10-11T14:09:05.100Z,8.65
2022-10-11T14:11:38.593Z,7.10
2022-10-11T14:14:32.986Z,7.30
2022-10-11T14:17:06.345Z,5.25
2022-10-11T14:19:33.048Z,13.82
2022-10-11T14:21:59.720Z,8.43
2022-10-11T14:24:26.432Z,7.63
2022-10-11T14:26:55.827Z,9.25
2022-10-11T14:29:29.052Z,7.13
2022-10-11T14:32:06.632Z,11.77
2022-10-11T14:34:34.493Z,6.68
2022-10-11T14:37:01.216Z,11.55
2022-10-11T14:39:30.750Z,6.00
2022-10-11T14:41:57.510Z,8.93
2022-10-11T14:44:25.215Z,7.30
2022-10-11T14:46:54.823Z,6.80
2022-10-11T14:49:25.094Z,5.32
2022-10-11T14:51:53.174Z,4.85
2022-10-11T14:54:22.637Z,9.52
2022-10-11T14:56:54.221Z,6.65
2022-10-11T14:59:23.625Z,5.22
2022-10-11T15:01:53.777Z,9.52
2022-10-11T15:04:21.790Z,13.43
2022-10-11T15:06:49.237Z,7.75
2022-10-11T15:09:17.219Z,9.05
2022-10-11T15:11:44.483Z,6.32
2022-10-11T15:14:11.254Z,5.18
2022-10-11T15:16:39.922Z,11.13
2022-10-11T15:19:10.543Z,4.50
2022-10-11T15:21:37.324Z,8.77
2022-10-11T15:24:04.439Z,10.02
2022-10-11T15:26:31.205Z,11.65
2022-10-11T15:28:58.255Z,7.95
2022-10-11T15:31:25.316Z,5.35
2022-10-11T15:33:52.365Z,3.45
2022-10-11T15:36:22.247Z,6.45
2022-10-11T15:38:49.219Z,9.45
2022-10-11T15:41:18.686Z,10.45
2022-10-11T15:43:46.743Z,5.82
2022-10-11T15:46:19.738Z,9.00
2022-10-11T15:48:47.216Z,5.43
2022-10-11T15:51:13.907Z,8.63
2022-10-11T15:53:40.956Z,9.55
2022-10-11T15:56:12.188Z,4.82
2022-10-11T15:58:41.489Z,8.93
2022-10-11T16:01:14.723Z,9.20
2022-10-11T16:03:42.754Z,7.07
2022-10-11T16:06:10.106Z,9.10
2022-10-11T16:08:37.727Z,10.45
2022-10-11T16:11:05.703Z,8.38
2022-10-11T16:13:32.773Z,12.00
2022-10-11T16:16:02.037Z,8.82
2022-10-11T16:18:32.741Z,8.38
2022-10-11T16:21:08.801Z,5.20
2022-10-11T16:23:36.065Z,12.50
2022-10-11T16:26:06.949Z,9.43
2022-10-11T16:28:34.114Z,6.90
2022-10-11T16:31:05.835Z,9.27
2022-10-11T16:33:32.519Z,11.07
2022-10-11T16:36:19.176Z,13.52
2022-10-11T16:38:45.876Z,11.90
2022-10-11T16:41:12.564Z,8.73
2022-10-11T16:43:39.230Z,10.15
2022-10-11T16:46:06.248Z,14.68
2022-10-11T16:48:33.201Z,15.13
2022-10-11T16:51:06.298Z,32.22
2022-10-11T16:53:34.531Z,27.02
2022-10-11T16:56:05.390Z,47.08
2022-10-11T16:58:32.887Z,22.83
2022-10-11T17:00:59.612Z,12.27
2022-10-11T17:03:26.931Z,18.95
2022-10-11T17:05:53.891Z,20.58
2022-10-11T17:08:20.595Z,15.05
2022-10-11T17:10:53.461Z,29.35
2022-10-11T17:13:20.410Z,37.30
2022-10-11T17:15:47.913Z,57.92
2022-10-11T17:18:14.831Z,51.30
2022-10-11T17:20:41.668Z,54.97
2022-10-11T17:23:09.180Z,60.90
2022-10-11T17:25:46.545Z,58.55
2022-10-11T17:28:13.431Z,50.00
2022-10-11T17:30:43.259Z,38.83
2022-10-11T17:33:10.029Z,46.33
2022-10-11T17:35:36.753Z,44.65
2022-10-11T17:38:06.287Z,43.70
2022-10-11T17:40:33.175Z,49.15
2022-10-11T17:42:59.867Z,45.25
2022-10-11T17:45:26.568Z,38.72
2022-10-11T17:47:53.257Z,39.08
2022-10-11T17:50:19.933Z,46.50
2022-10-11T17:52:46.787Z,50.45
2022-10-11T17:55:13.660Z,41.13
2022-10-11T17:57:40.453Z,34.20
2022-10-11T18:00:07.971Z,37.45
2022-10-11T18:02:34.769Z,34.75
2022-10-11T18:05:01.568Z,32.65
2022-10-11T18:07:28.307Z,33.95
2022-10-11T18:09:55.040Z,26.13
2022-10-11T18:12:21.800Z,21.33
2022-10-11T18:14:48.516Z,21.52
2022-10-11T18:17:15.195Z,27.17
2022-10-11T18:19:41.884Z,13.68
2022-10-11T18:22:08.675Z,18.23
2022-10-11T18:24:35.377Z,20.70
2022-10-11T18:27:02.197Z,18.17
2022-10-11T18:29:29.453Z,15.15
2022-10-11T18:31:56.417Z,18.90
2022-10-11T18:34:23.145Z,14.32
2022-10-11T18:36:49.832Z,12.32
2022-10-11T18:39:16.654Z,16.45
2022-10-11T18:41:44.361Z,23.52
2022-10-11T18:44:16.215Z,12.45
2022-10-11T18:46:43.175Z,17.30
2022-10-11T18:49:10.073Z,11.55
2022-10-11T18:51:40.536Z,11.63
2022-10-11T18:54:08.853Z,15.50
2022-10-11T18:56:36.823Z,16.33
2022-10-11T18:59:05.252Z,10.60
2022-10-11T19:01:35.099Z,13.35
2022-10-11T19:04:03.559Z,19.73
2022-10-11T19:06:34.011Z,11.48
2022-10-11T19:09:03.962Z,12.93
2022-10-11T19:11:30.997Z,11.40
2022-10-11T19:14:00.756Z,13.57
2022-10-11T19:16:29.718Z,12.27
2022-10-11T19:18:57.259Z,10.48
2022-10-11T19:21:24.227Z,11.10
2022-10-11T19:23:51.337Z,21.00
2022-10-11T19:26:21.195Z,14.88
2022-10-11T19:28:53.817Z,18.98
2022-10-11T19:31:20.923Z,20.92
2022-10-11T19:33:49.487Z,15.15
2022-10-11T19:36:16.847Z,20.08
2022-10-11T19:38:46.136Z,19.58
2022-10-11T19:41:13.798Z,15.70
2022-10-11T19:43:40.545Z,15.50
2022-10-11T19:46:10.509Z,13.00
2022-10-11T19:48:38.295Z,15.07
2022-10-11T19:51:12.709Z,17.92
2022-10-11T19:53:39.759Z,14.65
2022-10-11T19:56:09.951Z,14.40
2022-10-11T19:58:36.837Z,18.10
2022-10-11T20:01:05.055Z,14.90
2022-10-11T20:03:33.618Z,19.98
2022-10-11T20:06:02.071Z,15.57
2022-10-11T20:08:31.255Z,17.10
2022-10-11T20:10:59.455Z,14.02
2022-10-11T20:13:30.057Z,13.25
2022-10-11T20:16:03.325Z,10.40
2022-10-11T20:18:30.434Z,8.90
2022-10-11T20:20:59.899Z,18.27
2022-10-11T20:23:27.945Z,17.40
2022-10-11T20:26:21.874Z,20.08
2022-10-11T20:28:55.698Z,18.85
2022-10-11T20:31:31.617Z,17.70
2022-10-11T20:34:05.692Z,15.98
2022-10-11T20:36:33.155Z,18.60
2022-10-11T20:39:00.422Z,14.07
2022-10-11T20:41:31.613Z,12.98
2022-10-11T20:43:59.854Z,16.67
2022-10-11T20:46:31.440Z,19.88
2022-10-11T20:49:04.071Z,19.58
2022-10-11T20:51:32.736Z,12.70
2022-10-11T20:54:00.677Z,15.68
2022-10-11T20:56:28.335Z,17.05
2022-10-11T20:58:56.140Z,21.75
2022-10-11T21:09:59.813Z,16.85
2022-10-11T21:12:26.505Z,14.73
2022-10-11T21:19:01.629Z,13.15
2022-10-11T21:24:40.857Z,13.25
2022-10-11T21:27:07.673Z,15.95
2022-10-11T21:29:44.414Z,17.40
2022-10-11T21:32:14.434Z,13.25
2022-10-11T21:35:50.971Z,12.82
2022-10-11T21:38:17.749Z,13.00
2022-10-11T21:40:44.445Z,16.58
2022-10-11T21:47:25.800Z,10.32
2022-10-11T21:49:52.511Z,10.57
2022-10-11T21:52:19.169Z,11.70
2022-10-11T21:54:45.853Z,8.20
2022-10-11T21:57:12.530Z,14.43
2022-10-11T21:59:39.506Z,13.35
2022-10-11T22:02:06.298Z,10.52
2022-10-11T22:04:33.054Z,11.70
2022-10-11T22:06:59.772Z,9.55
2022-10-11T22:09:28.320Z,14.18
2022-10-11T22:11:55.433Z,9.93
2022-10-11T22:14:22.528Z,6.97
2022-10-11T22:16:49.223Z,11.73
2022-10-11T22:19:15.988Z,7.78
2022-10-11T22:21:45.067Z,9.95
2022-10-11T22:24:12.253Z,10.77
2022-10-11T22:26:38.966Z,6.80
2022-10-11T22:29:05.691Z,6.55
2022-10-11T22:31:32.488Z,10.20
2022-10-11T22:34:00.570Z,14.15
2022-10-11T22:36:30.300Z,9.77
2022-10-11T22:38:57.487Z,12.82
2022-10-11T22:41:24.462Z,11.60
2022-10-11T22:43:51.241Z,8.02
2022-10-11T22:46:18.320Z,5.95
2022-10-11T22:48:45.026Z,10.48
2022-10-11T22:51:11.726Z,8.50
2022-10-11T22:53:38.756Z,10.40
2022-10-11T22:56:05.739Z,11.35
2022-10-11T22:58:32.455Z,9.13
2022-10-11T23:01:13.051Z,13.80
2022-10-11T23:03:39.842Z,13.10
2022-10-11T23:06:06.853Z,11.60
2022-10-11T23:08:33.705Z,11.43
2022-10-11T23:11:07.599Z,12.25
2022-10-11T23:13:34.969Z,13.02
2022-10-11T23:16:06.992Z,11.07
2022-10-11T23:21:01.072Z,9.93
2022-10-11T23:23:27.799Z,9.63
2022-10-11T23:26:06.335Z,11.45
2022-10-11T23:28:33.690Z,10.85
2022-10-11T23:31:01.002Z,12.43
2022-10-11T23:33:28.996Z,9.32
2022-10-11T23:35:55.681Z,8.38
2022-10-11T23:38:22.465Z,9.38
2022-10-11T23:40:49.156Z,10.25
2022-10-11T23:43:15.972Z,8.50
2022-10-11T23:45:44.230Z,11.10
2022-10-11T23:48:11.076Z,9.10
2022-10-11T23:50:37.875Z,11.82
2022-10-11T23:53:04.581Z,9.25
2022-10-11T23:55:31.385Z,11.07
2022-10-11T23:57:58.162Z,8.80
